createdAt,value
2019-05-11T00:01:24.694Z,4.50
2019-05-11T00:03:56.615Z,4.20
2019-05-11T00:06:28.667Z,5.47
2019-05-11T00:09:00.641Z,4.20
2019-05-11T00:11:32.604Z,4.63
2019-05-11T00:14:04.559Z,3.80
2019-05-11T00:16:36.499Z,4.73
2019-05-11T00:19:08.713Z,4.17
2019-05-11T00:21:40.673Z,4.20
2019-05-11T00:24:12.603Z,4.17
2019-05-11T00:26:44.633Z,3.83
2019-05-11T00:29:16.562Z,3.87
2019-05-11T00:31:48.530Z,4.63
2019-05-11T00:34:20.461Z,3.97
2019-05-11T00:36:52.420Z,3.83
2019-05-11T00:39:24.782Z,4.30
2019-05-11T00:41:56.720Z,3.60
2019-05-11T00:44:28.662Z,3.87
2019-05-11T00:47:00.622Z,3.97
2019-05-11T00:49:32.653Z,3.83
2019-05-11T00:52:04.967Z,4.43
2019-05-11T00:54:36.914Z,4.03
2019-05-11T00:57:08.842Z,3.50
2019-05-11T00:59:40.812Z,4.53
2019-05-11T01:02:12.753Z,4.00
2019-05-11T01:04:44.704Z,3.80
2019-05-11T01:07:16.962Z,3.43
2019-05-11T01:09:48.981Z,3.97
2019-05-11T01:12:21.337Z,3.60
2019-05-11T01:14:53.271Z,4.00
2019-05-11T01:17:25.521Z,3.87
2019-05-11T01:19:57.519Z,4.20
2019-05-11T01:22:29.730Z,3.80
2019-05-11T01:25:01.764Z,4.20
2019-05-11T01:27:33.700Z,3.73
2019-05-11T01:30:07.147Z,3.93
2019-05-11T01:32:39.102Z,3.57
2019-05-11T01:35:11.784Z,3.97
2019-05-11T01:37:43.724Z,3.93
2019-05-11T01:40:16.323Z,4.40
2019-05-11T01:42:48.260Z,4.17
2019-05-11T01:45:20.204Z,4.17
2019-05-11T01:47:52.156Z,4.27
2019-05-11T01:50:24.114Z,3.73
2019-05-11T01:52:56.116Z,4.20
2019-05-11T01:55:28.089Z,4.50
2019-05-11T01:58:00.040Z,4.07
2019-05-11T02:00:31.991Z,4.30
2019-05-11T02:03:03.934Z,4.07
2019-05-11T02:05:35.887Z,4.13
2019-05-11T02:08:07.808Z,3.77
2019-05-11T02:10:39.773Z,4.17
2019-05-11T02:13:11.709Z,3.60
2019-05-11T02:15:43.682Z,3.43
2019-05-11T02:18:15.985Z,3.47
2019-05-11T02:20:47.916Z,4.00
2019-05-11T02:23:20.171Z,3.47
2019-05-11T02:25:52.132Z,4.03
2019-05-11T02:28:24.079Z,3.97
2019-05-11T02:30:56.211Z,3.63
2019-05-11T02:33:28.157Z,3.37
2019-05-11T02:36:00.095Z,4.07
2019-05-11T02:38:34.903Z,3.80
2019-05-11T02:41:06.848Z,3.60
2019-05-11T02:43:38.798Z,3.40
2019-05-11T02:46:10.821Z,3.67
2019-05-11T02:48:43.081Z,3.57
2019-05-11T02:51:15.356Z,3.73
2019-05-11T02:53:48.838Z,4.00
2019-05-11T02:56:20.818Z,4.53
2019-05-11T02:58:52.717Z,3.37
2019-05-11T03:01:24.685Z,3.80
2019-05-11T03:03:56.605Z,4.23
2019-05-11T03:06:28.584Z,3.87
2019-05-11T03:09:00.508Z,3.60
2019-05-11T03:11:32.457Z,3.73
2019-05-11T03:14:04.453Z,3.50
2019-05-11T03:16:36.409Z,3.77
2019-05-11T03:19:08.416Z,3.87
2019-05-11T03:21:40.362Z,4.13
2019-05-11T03:24:12.319Z,3.57
2019-05-11T03:26:44.262Z,3.80
2019-05-11T03:29:16.213Z,3.47
2019-05-11T03:31:48.154Z,4.30
2019-05-11T03:34:20.090Z,3.90
2019-05-11T03:36:52.208Z,3.90
2019-05-11T03:39:24.149Z,3.63
2019-05-11T03:42:13.368Z,4.10
2019-05-11T03:44:29.736Z,3.37
2019-05-11T03:47:01.934Z,3.70
2019-05-11T03:49:33.892Z,3.70
2019-05-11T03:52:05.843Z,3.60
2019-05-11T03:54:37.767Z,4.53
2019-05-11T03:57:09.702Z,3.60
2019-05-11T03:59:41.817Z,3.57
2019-05-11T04:02:13.835Z,3.80
2019-05-11T04:04:45.799Z,3.70
2019-05-11T04:07:17.747Z,4.10
2019-05-11T04:09:50.021Z,3.30
2019-05-11T04:12:33.948Z,3.47
2019-05-11T04:14:55.598Z,4.03
2019-05-11T04:17:27.860Z,3.77
2019-05-11T04:19:59.798Z,3.37
2019-05-11T04:22:31.740Z,3.30
2019-05-11T04:25:04.540Z,3.27
2019-05-11T04:27:36.849Z,3.50
2019-05-11T04:30:09.629Z,3.80
2019-05-11T04:32:41.630Z,3.87
2019-05-11T04:35:13.649Z,3.83
2019-05-11T04:37:45.585Z,3.30
2019-05-11T04:40:17.875Z,3.63
2019-05-11T04:42:55.576Z,3.20
2019-05-11T04:45:23.466Z,3.93
2019-05-11T04:47:55.422Z,3.40
2019-05-11T04:50:27.369Z,3.33
2019-05-11T04:52:59.358Z,3.43
2019-05-11T04:55:32.248Z,3.73
2019-05-11T04:58:04.202Z,3.70
2019-05-11T05:00:36.141Z,3.73
2019-05-11T05:03:08.086Z,4.07
2019-05-11T05:05:40.045Z,3.67
2019-05-11T05:08:11.979Z,4.10
2019-05-11T05:10:43.927Z,3.80
2019-05-11T05:13:15.866Z,4.20
2019-05-11T05:15:47.808Z,4.23
2019-05-11T05:18:19.765Z,4.17
2019-05-11T05:20:51.709Z,3.90
2019-05-11T05:23:23.933Z,4.10
2019-05-11T05:25:55.881Z,4.00
2019-05-11T05:28:27.834Z,4.00
2019-05-11T05:30:59.781Z,4.60
2019-05-11T05:33:31.799Z,4.10
2019-05-11T05:36:03.871Z,3.80
2019-05-11T05:38:36.083Z,3.70
2019-05-11T05:41:08.304Z,3.87
2019-05-11T05:43:40.565Z,4.37
2019-05-11T05:46:12.581Z,3.60
2019-05-11T05:48:45.113Z,4.00
2019-05-11T05:51:17.049Z,3.70
2019-05-11T05:53:49.019Z,4.20
2019-05-11T05:56:20.954Z,4.20
2019-05-11T05:58:52.937Z,3.53
2019-05-11T06:01:24.885Z,4.00
2019-05-11T06:03:56.818Z,4.20
2019-05-11T06:06:28.823Z,4.13
2019-05-11T06:09:00.775Z,2.90
2019-05-11T06:11:32.819Z,3.70
2019-05-11T06:14:04.764Z,4.07
2019-05-11T06:16:36.803Z,3.00
2019-05-11T06:19:09.092Z,3.87
2019-05-11T06:21:41.054Z,3.77
2019-05-11T06:24:13.001Z,3.90
2019-05-11T06:26:45.287Z,3.43
2019-05-11T06:29:21.274Z,3.40
2019-05-11T06:31:51.168Z,3.03
2019-05-11T06:34:23.126Z,3.80
2019-05-11T06:36:55.422Z,3.40
2019-05-11T06:39:27.447Z,3.20
2019-05-11T06:41:59.398Z,3.13
2019-05-11T06:44:31.435Z,4.13
2019-05-11T06:47:03.423Z,3.17
2019-05-11T06:49:35.459Z,3.17
2019-05-11T06:52:07.690Z,3.50
2019-05-11T06:54:39.689Z,2.90
2019-05-11T06:57:11.619Z,3.20
2019-05-11T06:59:43.567Z,2.90
2019-05-11T07:02:15.514Z,2.57
2019-05-11T07:04:47.452Z,2.87
2019-05-11T07:07:19.402Z,2.90
2019-05-11T07:09:51.339Z,3.37
2019-05-11T07:12:23.509Z,2.80
2019-05-11T07:14:55.480Z,3.07
2019-05-11T07:17:27.496Z,2.80
2019-05-11T07:19:59.474Z,2.60
2019-05-11T07:22:31.445Z,2.77
2019-05-11T07:25:04.705Z,3.17
2019-05-11T07:27:36.821Z,2.70
2019-05-11T07:30:09.789Z,3.20
2019-05-11T07:32:41.727Z,2.70
2019-05-11T07:35:13.758Z,2.63
2019-05-11T07:37:47.708Z,3.23
2019-05-11T07:40:19.439Z,2.70
2019-05-11T07:42:51.667Z,3.20
2019-05-11T07:45:24.180Z,3.13
2019-05-11T07:47:56.122Z,2.60
2019-05-11T07:50:28.475Z,2.90
2019-05-11T07:53:01.067Z,3.20
2019-05-11T07:55:33.035Z,2.20
2019-05-11T07:58:05.059Z,2.37
2019-05-11T08:00:39.811Z,3.43
2019-05-11T08:03:10.745Z,2.70
2019-05-11T08:05:42.700Z,2.53
2019-05-11T08:08:14.695Z,2.73
2019-05-11T08:10:48.329Z,2.50
2019-05-11T08:13:20.312Z,2.63
2019-05-11T08:15:52.319Z,2.40
2019-05-11T08:18:24.630Z,3.00
2019-05-11T08:20:58.272Z,3.20
2019-05-11T08:23:30.399Z,3.03
2019-05-11T08:26:02.925Z,2.77
2019-05-11T08:28:35.209Z,2.40
2019-05-11T08:31:08.089Z,2.77
2019-05-11T08:33:40.373Z,2.57
2019-05-11T08:36:12.387Z,2.53
2019-05-11T08:38:44.715Z,2.03
2019-05-11T08:41:18.453Z,2.23
2019-05-11T08:43:50.743Z,2.63
2019-05-11T08:46:22.688Z,3.50
2019-05-11T08:48:54.921Z,2.47
2019-05-11T08:51:28.032Z,2.67
2019-05-11T08:54:00.092Z,2.00
2019-05-11T08:56:32.255Z,2.30
2019-05-11T08:59:04.218Z,3.00
2019-05-11T09:01:39.266Z,2.43
2019-05-11T09:04:10.959Z,2.10
2019-05-11T09:06:43.078Z,2.33
2019-05-11T09:09:15.330Z,2.30
2019-05-11T09:11:48.132Z,2.70
2019-05-11T09:14:20.492Z,2.20
2019-05-11T09:16:52.433Z,3.13
2019-05-11T09:19:24.726Z,2.43
2019-05-11T09:21:58.802Z,1.90
2019-05-11T09:24:30.400Z,2.00
2019-05-11T09:27:02.351Z,1.97
2019-05-11T09:29:34.279Z,2.13
2019-05-11T09:32:08.665Z,2.43
2019-05-11T09:34:39.948Z,2.37
2019-05-11T09:37:11.913Z,2.00
2019-05-11T09:39:44.124Z,2.07
2019-05-11T09:42:17.947Z,2.30
2019-05-11T09:44:49.709Z,1.97
2019-05-11T09:47:21.965Z,2.10
2019-05-11T09:49:53.934Z,1.87
2019-05-11T09:52:27.842Z,1.83
2019-05-11T09:54:59.924Z,2.00
2019-05-11T09:57:31.936Z,2.33
2019-05-11T10:00:04.366Z,1.97
2019-05-11T10:02:38.547Z,2.13
2019-05-11T10:05:10.856Z,2.20
2019-05-11T10:07:42.785Z,2.27
2019-05-11T10:10:14.955Z,2.47
2019-05-11T10:12:48.537Z,2.57
2019-05-11T10:15:20.977Z,2.10
2019-05-11T10:17:52.917Z,2.33
2019-05-11T10:20:24.856Z,2.40
2019-05-11T10:22:57.984Z,2.00
2019-05-11T10:25:30.210Z,1.77
2019-05-11T10:28:02.461Z,2.30
2019-05-11T10:30:34.414Z,2.57
2019-05-11T10:33:08.248Z,2.50
2019-05-11T10:35:39.995Z,2.27
2019-05-11T10:38:11.945Z,1.80
2019-05-11T10:40:43.898Z,1.77
2019-05-11T10:43:18.186Z,2.60
2019-05-11T10:45:49.837Z,2.70
2019-05-11T10:48:21.798Z,2.23
2019-05-11T10:50:53.811Z,2.60
2019-05-11T10:53:28.184Z,1.83
2019-05-11T10:56:00.451Z,2.47
2019-05-11T10:58:32.402Z,2.00
2019-05-11T11:01:04.379Z,1.97
2019-05-11T11:03:37.761Z,2.00
2019-05-11T11:06:09.830Z,2.03
2019-05-11T11:08:41.765Z,2.50
2019-05-11T11:11:13.730Z,3.50
2019-05-11T11:13:47.809Z,2.60
2019-05-11T11:16:35.246Z,2.20
2019-05-11T11:18:53.038Z,2.40
2019-05-11T11:21:25.013Z,3.13
2019-05-11T11:23:58.735Z,2.33
2019-05-11T11:26:30.755Z,2.70
2019-05-11T11:29:02.693Z,2.50
2019-05-11T11:31:34.642Z,2.50
2019-05-11T11:34:08.290Z,2.70
2019-05-11T11:36:40.405Z,2.47
2019-05-11T11:39:13.454Z,2.30
2019-05-11T11:41:45.745Z,2.97
2019-05-11T11:44:18.488Z,2.70
2019-05-11T11:46:55.149Z,2.60
2019-05-11T11:49:24.357Z,2.73
2019-05-11T11:51:57.723Z,3.20
2019-05-11T11:54:30.083Z,2.50
2019-05-11T11:57:02.336Z,3.33
2019-05-11T11:59:34.275Z,2.13
2019-05-11T12:02:08.390Z,2.77
2019-05-11T12:04:39.898Z,3.03
2019-05-11T12:07:12.006Z,2.50
2019-05-11T12:09:43.949Z,3.23
2019-05-11T12:12:15.907Z,3.00
2019-05-11T12:14:48.191Z,2.90
2019-05-11T12:17:20.297Z,2.70
2019-05-11T12:19:52.270Z,3.73
2019-05-11T12:22:24.188Z,3.63
2019-05-11T12:24:58.747Z,3.07
2019-05-11T12:27:29.778Z,3.80
2019-05-11T12:30:01.818Z,3.50
2019-05-11T12:32:38.469Z,3.10
2019-05-11T12:35:10.811Z,3.00
2019-05-11T12:37:42.775Z,3.10
2019-05-11T12:40:18.015Z,3.80
2019-05-11T12:42:49.731Z,3.10
2019-05-11T12:45:21.823Z,3.90
2019-05-11T12:47:53.830Z,2.87
2019-05-11T12:50:28.603Z,3.37
2019-05-11T12:53:00.448Z,2.70
2019-05-11T12:55:32.403Z,3.70
2019-05-11T12:58:04.351Z,3.10
2019-05-11T13:00:38.896Z,3.00
2019-05-11T13:03:11.054Z,3.30
2019-05-11T13:05:42.991Z,3.03
2019-05-11T13:08:14.942Z,2.90
2019-05-11T13:10:47.886Z,2.97
2019-05-11T13:13:20.138Z,3.33
2019-05-11T13:15:52.190Z,3.07
2019-05-11T13:18:24.152Z,2.93
2019-05-11T13:20:56.097Z,3.50
2019-05-11T13:23:28.142Z,2.97
2019-05-11T13:26:00.079Z,3.17
2019-05-11T13:28:32.043Z,3.03
2019-05-11T13:31:03.985Z,2.67
2019-05-11T13:33:38.277Z,2.93
2019-05-11T13:36:09.657Z,2.93
2019-05-11T13:38:41.609Z,2.70
2019-05-11T13:41:13.551Z,2.43
2019-05-11T13:43:45.497Z,2.87
2019-05-11T13:46:17.952Z,3.10
2019-05-11T13:48:50.544Z,2.33
2019-05-11T13:51:22.492Z,2.70
2019-05-11T13:53:54.695Z,2.47
2019-05-11T13:56:28.467Z,2.27
2019-05-11T13:59:12.576Z,2.47
2019-05-11T14:01:44.530Z,2.37
2019-05-11T14:04:18.093Z,2.83
2019-05-11T14:06:50.116Z,2.30
2019-05-11T14:09:22.075Z,2.60
2019-05-11T14:11:54.037Z,2.80
2019-05-11T14:14:26.065Z,2.70
2019-05-11T14:16:58.852Z,3.20
2019-05-11T14:19:31.055Z,2.20
2019-05-11T14:22:03.185Z,2.10
2019-05-11T14:24:35.120Z,2.60
2019-05-11T14:27:08.626Z,2.97
2019-05-11T14:29:40.618Z,3.10
2019-05-11T14:32:12.899Z,2.60
2019-05-11T14:34:44.865Z,2.73
2019-05-11T14:37:18.087Z,3.07
2019-05-11T14:39:50.599Z,2.00
2019-05-11T14:42:22.569Z,2.50
2019-05-11T14:44:54.495Z,2.23
2019-05-11T14:47:28.273Z,2.30
2019-05-11T14:50:00.176Z,2.60
2019-05-11T14:52:33.007Z,1.73
2019-05-11T14:55:08.194Z,1.83
2019-05-11T14:57:39.872Z,1.80
2019-05-11T15:00:12.578Z,2.00
2019-05-11T15:02:49.076Z,2.37
2019-05-11T15:05:22.154Z,2.30
2019-05-11T15:07:54.105Z,2.33
2019-05-11T15:10:27.806Z,2.27
2019-05-11T15:12:59.899Z,2.03
2019-05-11T15:15:31.836Z,2.23
2019-05-11T15:18:03.868Z,1.90
2019-05-11T15:20:35.803Z,1.90
2019-05-11T15:23:08.870Z,2.27
2019-05-11T15:25:40.938Z,2.40
2019-05-11T15:28:12.903Z,1.80
2019-05-11T15:30:44.846Z,1.97
2019-05-11T15:33:18.334Z,2.17
2019-05-11T15:35:50.518Z,2.03
2019-05-11T15:38:22.498Z,2.43
2019-05-11T15:40:54.455Z,2.40
2019-05-11T15:43:28.252Z,2.70
2019-05-11T15:46:00.350Z,2.27
2019-05-11T15:48:32.293Z,2.60
2019-05-11T15:51:04.308Z,2.80
2019-05-11T15:53:36.319Z,2.60
2019-05-11T15:56:08.702Z,2.13
2019-05-11T15:58:42.127Z,2.70
2019-05-11T16:01:15.475Z,2.50
2019-05-11T16:03:50.132Z,4.50
2019-05-11T16:06:23.612Z,2.73
2019-05-11T16:08:58.583Z,3.03
2019-05-11T16:11:32.087Z,2.77
2019-05-11T16:14:05.397Z,2.93
2019-05-11T16:16:39.293Z,2.83
2019-05-11T16:19:15.174Z,2.47
2019-05-11T16:21:47.729Z,2.70
2019-05-11T16:24:21.036Z,2.50
2019-05-11T16:26:54.352Z,2.73
2019-05-11T16:29:28.049Z,2.53
2019-05-11T16:32:01.498Z,3.07
2019-05-11T16:34:33.336Z,2.97
2019-05-11T16:37:07.772Z,2.90
2019-05-11T16:39:38.701Z,3.20
2019-05-11T16:42:10.521Z,3.00
2019-05-11T16:44:42.385Z,3.03
2019-05-11T16:47:14.207Z,2.80
2019-05-11T16:49:46.835Z,2.67
2019-05-11T16:52:18.661Z,3.27
2019-05-11T16:54:50.519Z,3.10
2019-05-11T16:57:22.354Z,3.53
2019-05-11T16:59:54.498Z,2.67
2019-05-11T17:02:27.437Z,2.70
2019-05-11T17:05:01.068Z,2.27
2019-05-11T17:07:33.263Z,2.93
2019-05-11T17:10:08.451Z,2.37
2019-05-11T17:12:40.824Z,2.57
2019-05-11T17:15:13.586Z,3.17
2019-05-11T17:17:45.410Z,2.40
2019-05-11T17:20:19.473Z,2.70
2019-05-11T17:22:53.760Z,2.73
2019-05-11T17:25:25.236Z,2.33
2019-05-11T17:27:58.794Z,2.70
2019-05-11T17:30:30.862Z,2.77
2019-05-11T17:33:04.154Z,2.70
2019-05-11T17:35:37.464Z,5.17
2019-05-11T17:38:09.555Z,2.97
2019-05-11T17:40:41.516Z,2.83
2019-05-11T17:43:13.773Z,2.90
2019-05-11T17:45:47.792Z,3.27
2019-05-11T17:48:19.387Z,2.70
2019-05-11T17:50:51.328Z,2.63
2019-05-11T17:53:23.350Z,2.87
2019-05-11T17:55:57.790Z,3.20
2019-05-11T17:58:29.479Z,2.70
2019-05-11T18:01:01.465Z,3.00
2019-05-11T18:03:33.412Z,3.30
2019-05-11T18:06:08.304Z,2.57
2019-05-11T18:08:39.848Z,2.53
2019-05-11T18:11:11.802Z,2.50
2019-05-11T18:13:43.736Z,2.30
2019-05-11T18:16:15.794Z,2.90
2019-05-11T18:18:48.339Z,2.40
2019-05-11T18:21:20.520Z,2.33
2019-05-11T18:23:52.472Z,3.13
2019-05-11T18:26:24.562Z,2.83
2019-05-11T18:28:58.566Z,2.83
2019-05-11T18:31:30.503Z,2.40
2019-05-11T18:34:02.517Z,2.70
2019-05-11T18:36:34.461Z,2.97
2019-05-11T18:39:07.984Z,3.47
2019-05-11T18:41:39.937Z,2.73
2019-05-11T18:44:12.046Z,3.33
2019-05-11T18:46:44.009Z,2.90
2019-05-11T18:49:17.841Z,3.23
2019-05-11T18:51:49.990Z,2.90
2019-05-11T18:54:22.293Z,3.53
2019-05-11T18:56:54.242Z,2.70
2019-05-11T18:59:28.286Z,3.77
2019-05-11T19:02:00.824Z,2.90
2019-05-11T19:04:32.768Z,3.10
2019-05-11T19:07:15.910Z,3.23
2019-05-11T19:09:38.367Z,3.03
2019-05-11T19:12:10.507Z,3.10
2019-05-11T19:14:42.439Z,3.17
2019-05-11T19:17:15.066Z,3.23
2019-05-11T19:19:48.614Z,3.40
2019-05-11T19:22:20.983Z,3.30
2019-05-11T19:24:52.925Z,3.33
2019-05-11T19:27:24.951Z,3.17
2019-05-11T19:29:57.699Z,3.60
2019-05-11T19:32:29.920Z,3.47
2019-05-11T19:35:02.156Z,3.53
2019-05-11T19:37:34.093Z,3.60
2019-05-11T19:40:09.177Z,3.90
2019-05-11T19:42:59.058Z,4.07
2019-05-11T19:45:30.895Z,3.75
2019-05-11T19:48:03.213Z,3.57
2019-05-11T19:50:35.189Z,4.00
2019-05-11T19:53:08.463Z,3.70
2019-05-11T19:55:40.817Z,3.87
2019-05-11T19:58:12.760Z,3.40
2019-05-11T20:00:44.699Z,4.13
2019-05-11T20:03:18.258Z,3.77
2019-05-11T20:05:50.498Z,3.80
2019-05-11T20:08:22.521Z,3.47
2019-05-11T20:10:54.627Z,3.47
2019-05-11T20:13:28.394Z,3.17
2019-05-11T20:16:00.634Z,3.07
2019-05-11T20:18:32.571Z,3.07
2019-05-11T20:21:16.726Z,3.00
2019-05-11T20:23:38.179Z,3.13
2019-05-11T20:26:10.210Z,3.23
2019-05-11T20:28:42.507Z,2.93
2019-05-11T20:31:14.521Z,3.33
2019-05-11T20:33:47.674Z,3.97
2019-05-11T20:36:19.703Z,2.93
2019-05-11T20:38:51.943Z,3.63
2019-05-11T20:41:23.864Z,3.30
2019-05-11T20:43:57.683Z,3.70
2019-05-11T20:46:29.467Z,3.30
2019-05-11T20:49:01.409Z,3.60
2019-05-11T20:51:36.997Z,3.67
2019-05-11T20:54:08.841Z,3.50
2019-05-11T20:56:40.767Z,3.40
2019-05-11T20:59:12.775Z,3.73
2019-05-11T21:01:44.730Z,3.37
2019-05-11T21:04:18.774Z,3.30
2019-05-11T21:06:51.006Z,3.77
2019-05-11T21:09:22.953Z,3.70
2019-05-11T21:11:54.914Z,3.93
2019-05-11T21:14:28.787Z,3.40
2019-05-11T21:17:00.506Z,2.70
2019-05-11T21:19:32.749Z,3.10
2019-05-11T21:22:04.824Z,3.00
2019-05-11T21:24:36.850Z,2.20
2019-05-11T21:27:08.806Z,2.27
2019-05-11T21:29:40.803Z,2.13
2019-05-11T21:32:12.735Z,2.43
2019-05-11T21:34:45.045Z,2.60
2019-05-11T21:37:18.267Z,2.10
2019-05-11T21:39:50.610Z,2.20
2019-05-11T21:42:22.543Z,2.13
2019-05-11T21:44:54.491Z,2.20
2019-05-11T21:47:28.813Z,1.80
2019-05-11T21:50:00.077Z,2.17
2019-05-11T21:52:32.018Z,1.87
2019-05-11T21:55:05.672Z,2.30
2019-05-11T21:57:37.621Z,2.00
2019-05-11T22:00:12.057Z,2.40
2019-05-11T22:02:44.055Z,2.13
2019-05-11T22:05:20.191Z,2.23
2019-05-11T22:07:50.001Z,2.50
2019-05-11T22:10:21.944Z,2.20
2019-05-11T22:12:53.891Z,2.70
2019-05-11T22:15:25.828Z,3.03
2019-05-11T22:17:58.548Z,2.83
2019-05-11T22:20:30.689Z,2.17
2019-05-11T22:23:02.639Z,2.83
2019-05-11T22:25:34.649Z,2.07
2019-05-11T22:28:08.498Z,2.40
2019-05-11T22:30:40.369Z,2.10
2019-05-11T22:33:12.315Z,2.13
2019-05-11T22:35:44.278Z,2.90
2019-05-11T22:38:16.291Z,2.20
2019-05-11T22:40:48.831Z,2.37
2019-05-11T22:43:21.024Z,2.00
2019-05-11T22:45:53.324Z,2.30
2019-05-11T22:48:25.269Z,1.87
2019-05-11T22:50:58.648Z,2.83
2019-05-11T22:53:43.890Z,2.07
2019-05-11T22:56:04.489Z,2.37
2019-05-11T22:58:36.499Z,2.10
2019-05-11T23:01:09.551Z,1.60
2019-05-11T23:03:41.480Z,1.90
2019-05-11T23:06:13.437Z,2.00
2019-05-11T23:08:45.366Z,2.37
2019-05-11T23:11:17.937Z,2.20
2019-05-11T23:13:50.147Z,2.47
2019-05-11T23:16:22.097Z,1.97
2019-05-11T23:18:54.035Z,2.27
2019-05-11T23:21:29.994Z,1.97
2019-05-11T23:23:59.785Z,2.20
2019-05-11T23:26:31.745Z,2.33
2019-05-11T23:29:04.007Z,1.90
2019-05-11T23:31:38.136Z,1.93
2019-05-11T23:34:09.609Z,2.10
2019-05-11T23:36:41.544Z,1.97
2019-05-11T23:39:13.508Z,2.10
2019-05-11T23:41:48.123Z,2.33
2019-05-11T23:44:19.417Z,2.20
2019-05-11T23:46:51.349Z,2.13
2019-05-11T23:49:23.304Z,2.27
2019-05-11T23:51:55.253Z,1.87
2019-05-11T23:54:27.901Z,2.27
2019-05-11T23:57:00.109Z,2.17
2019-05-11T23:59:32.051Z,2.37
